Terminal Aerodrome Forecast
Issued by NWS Oklahoma City, OK

Home | Current Version | Previous Version | Text Only | Print | Product List | Glossary On
Versions: 1 2 3 4 5 6 7 8 9 10 11 12 13 14 15 16 17 18 19 20 21 22 23 24 25
000
FTUS44 KOUN 271123
TAFOUN
TAF
KOUN 271123Z 2712/2812 03012KT P6SM OVC060
     FM271600 06010KT 2SM -SN OVC020
     FM272200 09008KT P6SM OVC020
     FM280000 09008KT P6SM OVC025 PROB30 2800/2806 P6SM -SN OVC025
     FM280900 10008KT P6SM OVC015=

USA.gov is the U.S. government's official web portal to all federal, state and local government web resources and services.